sensor_id;sensor_type;location;lat;lon;timestamp;pressure;altitude;pressure_sealevel;temperature;humidity
41234;BME280;26968;42.686;23.352;2023-04-02T00:04:03;94374.00;;;8.49;60.70
41234;BME280;26968;42.686;23.352;2023-04-02T00:09:19;94356.97;;;8.36;59.76
41234;BME280;26968;42.686;23.352;2023-04-02T00:11:48;94355.38;;;8.35;59.96
41234;BME280;26968;42.686;23.352;2023-04-02T00:16:54;94364.28;;;8.44;59.41
41234;BME280;26968;42.686;23.352;2023-04-02T00:21:52;94375.97;;;8.38;59.53
41234;BME280;26968;42.686;23.352;2023-04-02T00:24:19;94382.25;;;8.42;58.92
41234;BME280;26968;42.686;23.352;2023-04-02T00:26:48;94348.34;;;8.21;58.57
41234;BME280;26968;42.686;23.352;2023-04-02T00:29:17;94363.09;;;8.27;59.35
41234;BME280;26968;42.686;23.352;2023-04-02T00:31:48;94350.66;;;8.32;58.67
41234;BME280;26968;42.686;23.352;2023-04-02T00:37:34;94314.69;;;8.07;58.13
41234;BME280;26968;42.686;23.352;2023-04-02T00:40:29;94363.72;;;8.47;58.68
41234;BME280;26968;42.686;23.352;2023-04-02T00:42:58;94353.13;;;8.47;59.14
41234;BME280;26968;42.686;23.352;2023-04-02T00:47:50;94371.16;;;8.45;61.77
41234;BME280;26968;42.686;23.352;2023-04-02T00:50:22;94364.94;;;8.55;62.17
41234;BME280;26968;42.686;23.352;2023-04-02T00:52:51;94313.56;;;8.13;62.80
41234;BME280;26968;42.686;23.352;2023-04-02T00:55:25;94366.72;;;8.65;62.51
41234;BME280;26968;42.686;23.352;2023-04-02T00:57:53;94269.50;;;8.09;62.53
41234;BME280;26968;42.686;23.352;2023-04-02T01:00:29;94321.88;;;8.26;62.92
41234;BME280;26968;42.686;23.352;2023-04-02T01:11:24;94372.66;;;8.51;63.38
41234;BME280;26968;42.686;23.352;2023-04-02T01:16:59;94340.31;;;8.07;63.83
41234;BME280;26968;42.686;23.352;2023-04-02T01:22:04;94342.00;;;7.59;65.48
41234;BME280;26968;42.686;23.352;2023-04-02T01:24:34;94337.25;;;7.56;65.59
41234;BME280;26968;42.686;23.352;2023-04-02T01:27:04;94295.50;;;7.29;64.88
41234;BME280;26968;42.686;23.352;2023-04-02T01:29:48;94309.47;;;7.29;65.26
41234;BME280;26968;42.686;23.352;2023-04-02T01:32:19;94316.69;;;7.14;66.21
41234;BME280;26968;42.686;23.352;2023-04-02T01:34:46;94391.88;;;7.55;66.34
41234;BME280;26968;42.686;23.352;2023-04-02T01:45:26;94342.03;;;7.54;65.31
41234;BME280;26968;42.686;23.352;2023-04-02T01:47:53;94276.41;;;7.03;66.14
41234;BME280;26968;42.686;23.352;2023-04-02T01:52:46;94375.28;;;7.50;66.30
41234;BME280;26968;42.686;23.352;2023-04-02T01:55:14;94312.03;;;7.01;67.01
41234;BME280;26968;42.686;23.352;2023-04-02T01:57:45;94344.34;;;7.21;66.99
41234;BME280;26968;42.686;23.352;2023-04-02T02:00:14;94303.78;;;7.12;66.66
41234;BME280;26968;42.686;23.352;2023-04-02T02:02:41;94382.34;;;7.59;66.37
41234;BME280;26968;42.686;23.352;2023-04-02T02:05:16;94302.72;;;7.13;66.12
41234;BME280;26968;42.686;23.352;2023-04-02T02:07:43;94298.00;;;7.05;66.35
41234;BME280;26968;42.686;23.352;2023-04-02T02:10:19;94333.56;;;7.13;66.80
41234;BME280;26968;42.686;23.352;2023-04-02T02:12:46;94309.75;;;6.79;67.31
41234;BME280;26968;42.686;23.352;2023-04-02T02:15:19;94375.38;;;7.40;66.59
41234;BME280;26968;42.686;23.352;2023-04-02T02:17:45;94349.72;;;7.45;66.83
41234;BME280;26968;42.686;23.352;2023-04-02T02:20:12;94286.97;;;6.98;66.59
41234;BME280;26968;42.686;23.352;2023-04-02T02:22:46;94296.13;;;7.11;66.40
41234;BME280;26968;42.686;23.352;2023-04-02T02:25:22;94300.25;;;7.32;65.79
41234;BME280;26968;42.686;23.352;2023-04-02T02:28:07;94373.03;;;7.72;66.04
41234;BME280;26968;42.686;23.352;2023-04-02T02:30:47;94380.84;;;7.87;65.50
41234;BME280;26968;42.686;23.352;2023-04-02T02:33:27;94380.03;;;7.92;65.06
41234;BME280;26968;42.686;23.352;2023-04-02T02:44:29;94375.91;;;8.09;65.68
41234;BME280;26968;42.686;23.352;2023-04-02T02:47:00;94367.50;;;8.07;65.49
41234;BME280;26968;42.686;23.352;2023-04-02T02:49:32;94369.84;;;8.09;65.78
41234;BME280;26968;42.686;23.352;2023-04-02T02:54:34;94347.31;;;7.88;65.96
41234;BME280;26968;42.686;23.352;2023-04-02T02:57:02;94318.97;;;7.69;66.14
41234;BME280;26968;42.686;23.352;2023-04-02T02:59:29;94379.16;;;8.01;66.31
41234;BME280;26968;42.686;23.352;2023-04-02T03:01:55;94341.03;;;7.84;65.78
41234;BME280;26968;42.686;23.352;2023-04-02T03:04:21;94375.44;;;8.02;66.04
41234;BME280;26968;42.686;23.352;2023-04-02T03:06:51;94294.66;;;7.33;66.76
41234;BME280;26968;42.686;23.352;2023-04-02T03:12:42;94375.16;;;8.04;65.79
41234;BME280;26968;42.686;23.352;2023-04-02T03:15:22;94379.13;;;8.06;65.87
41234;BME280;26968;42.686;23.352;2023-04-02T03:18:01;94330.06;;;7.66;65.69
41234;BME280;26968;42.686;23.352;2023-04-02T03:20:46;94352.16;;;7.75;65.87
41234;BME280;26968;42.686;23.352;2023-04-02T03:23:29;94389.97;;;8.05;65.59
41234;BME280;26968;42.686;23.352;2023-04-02T03:29:06;94360.88;;;7.71;66.01
41234;BME280;26968;42.686;23.352;2023-04-02T03:31:38;94312.25;;;7.48;65.93
41234;BME280;26968;42.686;23.352;2023-04-02T03:35:03;94402.69;;;7.98;65.65
41234;BME280;26968;42.686;23.352;2023-04-02T03:37:28;94395.81;;;7.97;66.25
41234;BME280;26968;42.686;23.352;2023-04-02T03:40:03;94333.91;;;7.45;67.01
41234;BME280;26968;42.686;23.352;2023-04-02T03:42:43;94395.59;;;7.93;66.25
41234;BME280;26968;42.686;23.352;2023-04-02T03:45:36;94364.63;;;7.70;66.20
41234;BME280;26968;42.686;23.352;2023-04-02T03:48:11;94398.53;;;7.87;66.70
41234;BME280;26968;42.686;23.352;2023-04-02T03:53:28;94395.09;;;7.86;66.54
41234;BME280;26968;42.686;23.352;2023-04-02T03:55:57;94405.16;;;7.84;66.81
41234;BME280;26968;42.686;23.352;2023-04-02T03:58:44;94396.19;;;7.80;66.67
41234;BME280;26968;42.686;23.352;2023-04-02T04:01:28;94381.81;;;7.62;67.25
41234;BME280;26968;42.686;23.352;2023-04-02T04:04:02;94353.19;;;7.41;66.77
41234;BME280;26968;42.686;23.352;2023-04-02T04:06:31;94305.66;;;7.07;67.10
41234;BME280;26968;42.686;23.352;2023-04-02T04:09:07;94370.59;;;7.42;67.21
41234;BME280;26968;42.686;23.352;2023-04-02T04:11:42;94409.22;;;7.66;66.82
41234;BME280;26968;42.686;23.352;2023-04-02T04:14:14;94418.47;;;7.64;67.38
41234;BME280;26968;42.686;23.352;2023-04-02T04:16:47;94421.00;;;7.35;68.09
41234;BME280;26968;42.686;23.352;2023-04-02T04:21:46;94339.28;;;6.76;68.13
41234;BME280;26968;42.686;23.352;2023-04-02T04:24:25;94415.47;;;7.36;67.86
41234;BME280;26968;42.686;23.352;2023-04-02T04:32:20;94429.16;;;7.44;67.84
41234;BME280;26968;42.686;23.352;2023-04-02T04:34:55;94382.06;;;7.17;67.29
41234;BME280;26968;42.686;23.352;2023-04-02T04:37:27;94361.09;;;6.91;67.38
41234;BME280;26968;42.686;23.352;2023-04-02T04:42:33;94432.75;;;7.09;68.50
41234;BME280;26968;42.686;23.352;2023-04-02T04:47:52;94380.31;;;6.87;68.50
41234;BME280;26968;42.686;23.352;2023-04-02T04:50:32;94443.47;;;7.27;68.28
41234;BME280;26968;42.686;23.352;2023-04-02T04:53:06;94401.94;;;6.94;68.43
41234;BME280;26968;42.686;23.352;2023-04-02T04:55:41;94374.59;;;6.75;69.00
41234;BME280;26968;42.686;23.352;2023-04-02T04:58:17;94391.66;;;6.87;69.07
41234;BME280;26968;42.686;23.352;2023-04-02T05:04:04;94447.41;;;7.30;68.67
41234;BME280;26968;42.686;23.352;2023-04-02T05:06:42;94376.09;;;6.96;69.13
41234;BME280;26968;42.686;23.352;2023-04-02T05:09:17;94444.94;;;7.49;68.78
41234;BME280;26968;42.686;23.352;2023-04-02T05:14:56;94443.84;;;7.60;68.51
41234;BME280;26968;42.686;23.352;2023-04-02T05:17:28;94448.28;;;7.69;67.92
41234;BME280;26968;42.686;23.352;2023-04-02T05:20:05;94436.44;;;7.62;67.87
41234;BME280;26968;42.686;23.352;2023-04-02T05:22:50;94444.53;;;7.75;67.54
41234;BME280;26968;42.686;23.352;2023-04-02T05:30:57;94458.97;;;7.93;67.11
41234;BME280;26968;42.686;23.352;2023-04-02T05:33:27;94461.84;;;7.97;67.20
41234;BME280;26968;42.686;23.352;2023-04-02T05:36:06;94376.66;;;7.42;66.51
41234;BME280;26968;42.686;23.352;2023-04-02T05:38:44;94414.75;;;7.70;65.73
41234;BME280;26968;42.686;23.352;2023-04-02T05:41:29;94462.97;;;7.86;64.97
41234;BME280;26968;42.686;23.352;2023-04-02T05:44:25;94458.59;;;7.66;64.89
41234;BME280;26968;42.686;23.352;2023-04-02T05:46:59;94449.84;;;7.70;64.97
41234;BME280;26968;42.686;23.352;2023-04-02T05:49:34;94405.59;;;7.57;64.75
41234;BME280;26968;42.686;23.352;2023-04-02T05:52:07;94472.44;;;7.87;63.89
41234;BME280;26968;42.686;23.352;2023-04-02T05:54:49;94442.38;;;7.83;64.09
41234;BME280;26968;42.686;23.352;2023-04-02T05:57:30;94394.31;;;7.47;64.36
41234;BME280;26968;42.686;23.352;2023-04-02T05:59:59;94480.56;;;8.00;63.72
41234;BME280;26968;42.686;23.352;2023-04-02T06:02:32;94481.00;;;8.12;63.63
41234;BME280;26968;42.686;23.352;2023-04-02T06:05:12;94440.53;;;7.83;63.23
41234;BME280;26968;42.686;23.352;2023-04-02T06:08:23;94481.13;;;8.36;62.91
41234;BME280;26968;42.686;23.352;2023-04-02T06:11:38;94475.88;;;8.26;62.49
41234;BME280;26968;42.686;23.352;2023-04-02T06:13:44;94470.25;;;8.43;62.47
41234;BME280;26968;42.686;23.352;2023-04-02T06:16:13;94430.28;;;8.16;62.23
41234;BME280;26968;42.686;23.352;2023-04-02T06:18:41;94473.81;;;8.57;62.31
41234;BME280;26968;42.686;23.352;2023-04-02T06:21:10;94432.25;;;8.39;61.60
41234;BME280;26968;42.686;23.352;2023-04-02T06:26:26;94482.53;;;8.86;61.06
41234;BME280;26968;42.686;23.352;2023-04-02T06:29:03;94390.06;;;8.24;60.89
41234;BME280;26968;42.686;23.352;2023-04-02T06:34:05;94418.13;;;8.48;60.59
41234;BME280;26968;42.686;23.352;2023-04-02T06:36:32;94481.81;;;8.81;60.83
41234;BME280;26968;42.686;23.352;2023-04-02T06:39:03;94460.91;;;8.84;60.38
41234;BME280;26968;42.686;23.352;2023-04-02T06:41:30;94470.75;;;9.03;60.62
41234;BME280;26968;42.686;23.352;2023-04-02T06:51:43;94413.22;;;8.66;59.43
41234;BME280;26968;42.686;23.352;2023-04-02T06:54:16;94444.97;;;8.89;59.69
41234;BME280;26968;42.686;23.352;2023-04-02T06:56:50;94382.56;;;8.65;59.60
41234;BME280;26968;42.686;23.352;2023-04-02T06:59:17;94393.13;;;8.65;59.38
41234;BME280;26968;42.686;23.352;2023-04-02T07:01:48;94489.22;;;9.32;58.91
41234;BME280;26968;42.686;23.352;2023-04-02T07:04:17;94456.28;;;9.19;58.83
41234;BME280;26968;42.686;23.352;2023-04-02T07:06:43;94445.53;;;9.10;59.40
41234;BME280;26968;42.686;23.352;2023-04-02T07:09:08;94445.72;;;9.19;58.98
41234;BME280;26968;42.686;23.352;2023-04-02T07:11:34;94504.75;;;9.62;58.99
41234;BME280;26968;42.686;23.352;2023-04-02T07:13:59;94444.22;;;9.32;58.75
41234;BME280;26968;42.686;23.352;2023-04-02T07:16:26;94460.25;;;9.45;59.72
41234;BME280;26968;42.686;23.352;2023-04-02T07:18:54;94504.06;;;9.75;59.51
41234;BME280;26968;42.686;23.352;2023-04-02T07:21:20;94368.41;;;8.79;59.46
41234;BME280;26968;42.686;23.352;2023-04-02T07:23:46;94403.72;;;8.88;59.48
41234;BME280;26968;42.686;23.352;2023-04-02T07:26:18;94501.28;;;9.66;59.95
41234;BME280;26968;42.686;23.352;2023-04-02T07:28:44;94514.22;;;9.68;60.28
41234;BME280;26968;42.686;23.352;2023-04-02T07:31:21;94460.88;;;9.56;59.21
41234;BME280;26968;42.686;23.352;2023-04-02T07:33:48;94505.16;;;9.93;59.16
41234;BME280;26968;42.686;23.352;2023-04-02T07:36:20;94454.63;;;9.47;59.99
41234;BME280;26968;42.686;23.352;2023-04-02T07:38:46;94440.84;;;9.50;58.48
41234;BME280;26968;42.686;23.352;2023-04-02T07:41:12;94505.00;;;9.84;57.76
41234;BME280;26968;42.686;23.352;2023-04-02T07:43:38;94404.34;;;9.28;57.48
41234;BME280;26968;42.686;23.352;2023-04-02T07:46:05;94473.66;;;9.73;56.49
41234;BME280;26968;42.686;23.352;2023-04-02T07:48:31;94511.34;;;10.26;57.32
41234;BME280;26968;42.686;23.352;2023-04-02T07:50:57;94374.41;;;9.51;57.14
41234;BME280;26968;42.686;23.352;2023-04-02T07:53:34;94456.03;;;10.00;56.99
41234;BME280;26968;42.686;23.352;2023-04-02T07:56:01;94503.28;;;10.36;56.92
41234;BME280;26968;42.686;23.352;2023-04-02T07:58:29;94504.13;;;10.50;56.69
41234;BME280;26968;42.686;23.352;2023-04-02T08:00:55;94505.50;;;10.61;54.10
41234;BME280;26968;42.686;23.352;2023-04-02T08:03:20;94511.53;;;10.67;53.49
41234;BME280;26968;42.686;23.352;2023-04-02T08:05:51;94405.25;;;9.98;53.75
41234;BME280;26968;42.686;23.352;2023-04-02T08:08:19;94412.53;;;10.06;55.02
41234;BME280;26968;42.686;23.352;2023-04-02T08:10:45;94455.44;;;10.60;53.71
41234;BME280;26968;42.686;23.352;2023-04-02T08:13:11;94482.81;;;10.88;53.04
41234;BME280;26968;42.686;23.352;2023-04-02T08:15:37;94515.41;;;11.20;52.28
41234;BME280;26968;42.686;23.352;2023-04-02T08:18:03;94470.47;;;11.10;53.15
41234;BME280;26968;42.686;23.352;2023-04-02T08:20:28;94468.41;;;11.07;52.67
41234;BME280;26968;42.686;23.352;2023-04-02T08:22:54;94436.31;;;10.76;49.87
41234;BME280;26968;42.686;23.352;2023-04-02T08:25:20;94449.22;;;10.83;50.48
41234;BME280;26968;42.686;23.352;2023-04-02T08:27:46;94435.91;;;10.69;51.57
41234;BME280;26968;42.686;23.352;2023-04-02T08:30:13;94462.97;;;10.85;52.02
41234;BME280;26968;42.686;23.352;2023-04-02T08:32:38;94427.66;;;10.71;51.37
41234;BME280;26968;42.686;23.352;2023-04-02T08:35:06;94504.78;;;11.20;52.04
41234;BME280;26968;42.686;23.352;2023-04-02T08:37:31;94511.00;;;11.43;51.44
41234;BME280;26968;42.686;23.352;2023-04-02T08:39:57;94512.78;;;11.48;52.51
41234;BME280;26968;42.686;23.352;2023-04-02T08:42:33;94522.22;;;11.54;51.00
41234;BME280;26968;42.686;23.352;2023-04-02T08:47:35;94514.84;;;11.51;51.44
41234;BME280;26968;42.686;23.352;2023-04-02T08:50:27;94522.81;;;11.51;50.73
41234;BME280;26968;42.686;23.352;2023-04-02T08:52:55;94475.09;;;11.18;51.72
41234;BME280;26968;42.686;23.352;2023-04-02T08:56:01;94523.91;;;11.50;50.33
41234;BME280;26968;42.686;23.352;2023-04-02T09:03:46;94477.66;;;11.37;49.18
41234;BME280;26968;42.686;23.352;2023-04-02T09:06:17;94505.00;;;11.65;48.11
41234;BME280;26968;42.686;23.352;2023-04-02T09:08:44;94512.59;;;11.85;48.53
41234;BME280;26968;42.686;23.352;2023-04-02T09:13:48;94480.31;;;11.78;48.78
41234;BME280;26968;42.686;23.352;2023-04-02T09:16:19;94463.19;;;11.84;49.23
41234;BME280;26968;42.686;23.352;2023-04-02T09:18:49;94496.66;;;12.21;50.38
41234;BME280;26968;42.686;23.352;2023-04-02T09:21:40;94481.16;;;12.37;48.11
41234;BME280;26968;42.686;23.352;2023-04-02T09:24:10;94509.44;;;12.33;47.19
41234;BME280;26968;42.686;23.352;2023-04-02T09:26:37;94450.59;;;11.90;48.09
41234;BME280;26968;42.686;23.352;2023-04-02T09:29:18;94513.50;;;12.53;47.36
41234;BME280;26968;42.686;23.352;2023-04-02T09:32:52;94482.50;;;12.26;47.82
41234;BME280;26968;42.686;23.352;2023-04-02T09:35:14;94530.81;;;12.42;48.40
41234;BME280;26968;42.686;23.352;2023-04-02T09:37:41;94470.09;;;12.21;46.98
41234;BME280;26968;42.686;23.352;2023-04-02T09:40:27;94499.75;;;12.51;47.14
41234;BME280;26968;42.686;23.352;2023-04-02T09:43:23;94503.31;;;12.68;48.55
41234;BME280;26968;42.686;23.352;2023-04-02T09:46:05;94448.84;;;12.44;48.37
41234;BME280;26968;42.686;23.352;2023-04-02T09:48:49;94503.13;;;12.87;47.43
41234;BME280;26968;42.686;23.352;2023-04-02T09:51:20;94443.28;;;12.54;46.58
41234;BME280;26968;42.686;23.352;2023-04-02T09:53:51;94363.28;;;12.19;46.09
41234;BME280;26968;42.686;23.352;2023-04-02T09:56:37;94351.88;;;12.19;45.76
41234;BME280;26968;42.686;23.352;2023-04-02T10:01:59;94447.25;;;12.87;45.60
41234;BME280;26968;42.686;23.352;2023-04-02T10:04:36;94464.84;;;12.97;44.59
41234;BME280;26968;42.686;23.352;2023-04-02T10:10:23;94468.47;;;13.88;43.69
41234;BME280;26968;42.686;23.352;2023-04-02T10:12:58;94483.28;;;14.38;41.70
41234;BME280;26968;42.686;23.352;2023-04-02T10:16:26;94478.28;;;14.79;41.17
41234;BME280;26968;42.686;23.352;2023-04-02T10:18:40;94467.31;;;14.55;42.31
41234;BME280;26968;42.686;23.352;2023-04-02T10:21:23;94456.59;;;14.81;41.71
41234;BME280;26968;42.686;23.352;2023-04-02T10:23:49;94450.59;;;15.01;40.03
41234;BME280;26968;42.686;23.352;2023-04-02T10:26:24;94478.38;;;15.09;40.13
41234;BME280;26968;42.686;23.352;2023-04-02T10:31:52;94473.84;;;15.00;40.99
41234;BME280;26968;42.686;23.352;2023-04-02T10:39:54;94376.75;;;14.24;41.10
41234;BME280;26968;42.686;23.352;2023-04-02T10:42:33;94416.28;;;14.30;41.23
41234;BME280;26968;42.686;23.352;2023-04-02T10:55:29;94463.75;;;15.15;41.11
41234;BME280;26968;42.686;23.352;2023-04-02T10:57:59;94465.09;;;15.76;39.86
41234;BME280;26968;42.686;23.352;2023-04-02T11:00:35;94408.38;;;15.91;37.84
41234;BME280;26968;42.686;23.352;2023-04-02T11:03:17;94457.53;;;16.28;37.65
41234;BME280;26968;42.686;23.352;2023-04-02T11:05:53;94457.34;;;16.75;37.68
41234;BME280;26968;42.686;23.352;2023-04-02T11:08:41;94450.88;;;17.09;36.41
41234;BME280;26968;42.686;23.352;2023-04-02T11:11:17;94419.81;;;17.08;36.49
41234;BME280;26968;42.686;23.352;2023-04-02T11:13:54;94455.31;;;17.62;34.55
41234;BME280;26968;42.686;23.352;2023-04-02T11:16:22;94457.34;;;17.08;34.58
41234;BME280;26968;42.686;23.352;2023-04-02T11:21:40;94460.00;;;17.77;34.32
41234;BME280;26968;42.686;23.352;2023-04-02T11:42:35;94438.19;;;16.43;36.06
41234;BME280;26968;42.686;23.352;2023-04-02T11:50:34;94386.81;;;17.52;33.81
41234;BME280;26968;42.686;23.352;2023-04-02T12:11:43;94435.91;;;17.20;34.96
41234;BME280;26968;42.686;23.352;2023-04-02T12:16:56;94431.75;;;17.67;34.05
41234;BME280;26968;42.686;23.352;2023-04-02T12:19:22;94427.88;;;17.32;34.25
41234;BME280;26968;42.686;23.352;2023-04-02T12:21:50;94404.81;;;16.82;34.75
41234;BME280;26968;42.686;23.352;2023-04-02T12:24:20;94432.75;;;16.93;34.85
41234;BME280;26968;42.686;23.352;2023-04-02T12:26:47;94439.81;;;16.56;35.29
41234;BME280;26968;42.686;23.352;2023-04-02T12:29:26;94347.81;;;16.28;35.11
41234;BME280;26968;42.686;23.352;2023-04-02T12:31:54;94424.41;;;17.07;35.08
41234;BME280;26968;42.686;23.352;2023-04-02T12:34:23;94378.03;;;16.82;34.32
41234;BME280;26968;42.686;23.352;2023-04-02T12:37:03;94428.28;;;17.67;33.54
41234;BME280;26968;42.686;23.352;2023-04-02T12:39:31;94352.16;;;17.47;32.84
41234;BME280;26968;42.686;23.352;2023-04-02T12:41:57;94415.69;;;18.20;32.59
41234;BME280;26968;42.686;23.352;2023-04-02T12:44:28;94420.00;;;18.36;31.74
41234;BME280;26968;42.686;23.352;2023-04-02T12:46:54;94392.66;;;18.19;31.78
41234;BME280;26968;42.686;23.352;2023-04-02T12:49:41;94429.00;;;18.04;31.94
41234;BME280;26968;42.686;23.352;2023-04-02T12:52:10;94356.97;;;17.54;32.56
41234;BME280;26968;42.686;23.352;2023-04-02T12:54:46;94404.69;;;17.72;32.50
41234;BME280;26968;42.686;23.352;2023-04-02T12:59:51;94409.44;;;17.18;33.42
41234;BME280;26968;42.686;23.352;2023-04-02T13:02:18;94411.34;;;17.06;33.74
41234;BME280;26968;42.686;23.352;2023-04-02T13:04:53;94410.22;;;16.62;34.13
41234;BME280;26968;42.686;23.352;2023-04-02T13:07:22;94363.66;;;16.54;33.52
41234;BME280;26968;42.686;23.352;2023-04-02T13:09:51;94392.00;;;16.55;34.59
41234;BME280;26968;42.686;23.352;2023-04-02T13:12:31;94389.31;;;16.88;33.98
41234;BME280;26968;42.686;23.352;2023-04-02T13:15:00;94342.44;;;16.49;33.48
41234;BME280;26968;42.686;23.352;2023-04-02T13:20:40;94398.22;;;16.80;34.36
41234;BME280;26968;42.686;23.352;2023-04-02T13:26:10;94381.66;;;17.47;32.75
41234;BME280;26968;42.686;23.352;2023-04-02T13:28:39;94373.25;;;17.85;31.95
41234;BME280;26968;42.686;23.352;2023-04-02T13:31:04;94335.72;;;17.85;31.01
41234;BME280;26968;42.686;23.352;2023-04-02T13:33:30;94360.31;;;18.27;30.90
41234;BME280;26968;42.686;23.352;2023-04-02T13:35:55;94361.72;;;18.37;31.21
41234;BME280;26968;42.686;23.352;2023-04-02T13:38:21;94364.19;;;18.02;30.61
41234;BME280;26968;42.686;23.352;2023-04-02T13:40:46;94272.81;;;17.83;30.60
41234;BME280;26968;42.686;23.352;2023-04-02T13:43:18;94385.03;;;19.04;30.14
41234;BME280;26968;42.686;23.352;2023-04-02T13:45:47;94351.22;;;19.03;29.34
41234;BME280;26968;42.686;23.352;2023-04-02T13:48:14;94404.38;;;19.25;28.79
41234;BME280;26968;42.686;23.352;2023-04-02T13:50:40;94400.16;;;18.81;29.57
41234;BME280;26968;42.686;23.352;2023-04-02T13:53:07;94282.84;;;17.46;29.18
41234;BME280;26968;42.686;23.352;2023-04-02T13:55:39;94365.38;;;17.64;29.83
41234;BME280;26968;42.686;23.352;2023-04-02T13:58:06;94328.38;;;17.58;29.80
41234;BME280;26968;42.686;23.352;2023-04-02T14:00:34;94392.97;;;17.65;30.34
41234;BME280;26968;42.686;23.352;2023-04-02T14:03:11;94379.31;;;17.46;30.94
41234;BME280;26968;42.686;23.352;2023-04-02T14:08:27;94380.53;;;17.97;30.62
41234;BME280;26968;42.686;23.352;2023-04-02T14:21:49;94375.78;;;18.46;29.16
41234;BME280;26968;42.686;23.352;2023-04-02T14:27:07;94370.38;;;19.17;28.70
41234;BME280;26968;42.686;23.352;2023-04-02T14:32:35;94365.06;;;18.74;29.19
41234;BME280;26968;42.686;23.352;2023-04-02T14:35:41;94322.00;;;18.42;28.58
41234;BME280;26968;42.686;23.352;2023-04-02T14:41:21;94368.78;;;19.79;27.34
41234;BME280;26968;42.686;23.352;2023-04-02T14:44:03;94317.75;;;19.83;27.32
41234;BME280;26968;42.686;23.352;2023-04-02T14:46:31;94302.81;;;20.04;26.41
41234;BME280;26968;42.686;23.352;2023-04-02T14:48:59;94362.66;;;19.98;27.03
41234;BME280;26968;42.686;23.352;2023-04-02T14:51:42;94368.63;;;19.72;27.08
41234;BME280;26968;42.686;23.352;2023-04-02T14:56:46;94374.19;;;20.53;26.75
41234;BME280;26968;42.686;23.352;2023-04-02T15:02:33;94378.25;;;20.08;26.62
41234;BME280;26968;42.686;23.352;2023-04-02T15:07:56;94381.25;;;18.49;28.32
41234;BME280;26968;42.686;23.352;2023-04-02T15:10:47;94387.53;;;18.13;29.02
41234;BME280;26968;42.686;23.352;2023-04-02T15:13:20;94361.69;;;17.69;29.54
41234;BME280;26968;42.686;23.352;2023-04-02T15:16:21;94346.16;;;17.38;29.54
41234;BME280;26968;42.686;23.352;2023-04-02T15:18:51;94405.47;;;17.61;29.85
41234;BME280;26968;42.686;23.352;2023-04-02T15:23:46;94388.94;;;17.71;30.11
41234;BME280;26968;42.686;23.352;2023-04-02T15:29:18;94393.16;;;18.36;28.84
41234;BME280;26968;42.686;23.352;2023-04-02T15:31:50;94341.25;;;18.04;28.72
41234;BME280;26968;42.686;23.352;2023-04-02T15:40:29;94400.88;;;17.73;29.33
41234;BME280;26968;42.686;23.352;2023-04-02T15:59:51;94403.75;;;17.93;27.95
41234;BME280;26968;42.686;23.352;2023-04-02T16:05:12;94361.44;;;17.50;28.47
41234;BME280;26968;42.686;23.352;2023-04-02T16:10:38;94412.22;;;18.19;27.43
41234;BME280;26968;42.686;23.352;2023-04-02T16:16:16;94408.13;;;16.79;29.38
41234;BME280;26968;42.686;23.352;2023-04-02T16:21:34;94357.97;;;16.02;30.08
41234;BME280;26968;42.686;23.352;2023-04-02T16:24:11;94338.41;;;15.68;30.45
41234;BME280;26968;42.686;23.352;2023-04-02T16:27:06;94367.09;;;15.51;30.88
41234;BME280;26968;42.686;23.352;2023-04-02T16:32:35;94407.59;;;15.70;31.32
41234;BME280;26968;42.686;23.352;2023-04-02T16:35:19;94418.00;;;15.63;31.35
41234;BME280;26968;42.686;23.352;2023-04-02T16:40:41;94345.25;;;15.19;31.53
41234;BME280;26968;42.686;23.352;2023-04-02T16:49:08;94345.28;;;14.73;32.43
41234;BME280;26968;42.686;23.352;2023-04-02T16:57:22;94424.72;;;14.84;33.07
41234;BME280;26968;42.686;23.352;2023-04-02T17:06:00;94435.22;;;14.81;33.21
41234;BME280;26968;42.686;23.352;2023-04-02T17:08:41;94368.78;;;14.41;33.52
41234;BME280;26968;42.686;23.352;2023-04-02T17:11:09;94422.91;;;14.42;34.07
41234;BME280;26968;42.686;23.352;2023-04-02T17:13:42;94385.06;;;14.14;34.09
41234;BME280;26968;42.686;23.352;2023-04-02T17:16:17;94456.16;;;14.53;34.22
41234;BME280;26968;42.686;23.352;2023-04-02T17:18:47;94455.38;;;14.70;33.87
41234;BME280;26968;42.686;23.352;2023-04-02T17:21:17;94456.94;;;14.71;33.97
41234;BME280;26968;42.686;23.352;2023-04-02T17:24:05;94460.53;;;14.66;34.77
41234;BME280;26968;42.686;23.352;2023-04-02T17:26:44;94446.09;;;14.33;35.38
41234;BME280;26968;42.686;23.352;2023-04-02T17:29:26;94468.38;;;14.37;35.68
41234;BME280;26968;42.686;23.352;2023-04-02T17:31:56;94399.50;;;13.87;36.11
41234;BME280;26968;42.686;23.352;2023-04-02T17:34:23;94396.06;;;13.86;36.25
41234;BME280;26968;42.686;23.352;2023-04-02T17:40:00;94433.22;;;14.00;36.57
41234;BME280;26968;42.686;23.352;2023-04-02T17:48:04;94481.97;;;13.92;37.02
41234;BME280;26968;42.686;23.352;2023-04-02T17:53:38;94499.22;;;13.86;37.56
41234;BME280;26968;42.686;23.352;2023-04-02T18:09:44;94520.09;;;13.53;38.84
41234;BME280;26968;42.686;23.352;2023-04-02T18:12:21;94518.41;;;13.57;38.95
41234;BME280;26968;42.686;23.352;2023-04-02T18:20:19;94522.69;;;13.75;38.36
41234;BME280;26968;42.686;23.352;2023-04-02T18:28:47;94510.81;;;13.42;39.32
41234;BME280;26968;42.686;23.352;2023-04-02T18:34:07;94561.16;;;13.91;38.98
41234;BME280;26968;42.686;23.352;2023-04-02T18:48:18;94571.84;;;13.30;40.16
41234;BME280;26968;42.686;23.352;2023-04-02T18:50:47;94550.72;;;13.11;40.20
41234;BME280;26968;42.686;23.352;2023-04-02T18:53:16;94577.06;;;13.35;39.86
41234;BME280;26968;42.686;23.352;2023-04-02T18:55:48;94583.78;;;13.32;40.27
41234;BME280;26968;42.686;23.352;2023-04-02T18:58:26;94549.88;;;13.24;40.00
41234;BME280;26968;42.686;23.352;2023-04-02T19:00:52;94526.22;;;12.78;40.05
41234;BME280;26968;42.686;23.352;2023-04-02T19:03:51;94583.72;;;13.24;40.67